Time;durP1;ratioP1;P1;durP2;ratioP2;P2;SDS_P1;SDS_P2;PMS_P1;PMS_P2;Temp;Humidity;BMP_temperature;BMP_pressure;BME280_temperature;BME280_humidity;BME280_pressure;Samples;Min_cycle;Max_cycle;Signal;HPM_P1;HPM_P2
2023/03/30 03:18:31;;;;;;;35.20;32.60;;;14.00;99.90;;;;;;5043237;23;20502;-73
2023/03/30 03:20:58;;;;;;;34.97;32.50;;;13.80;99.90;;;;;;4914697;29;20454;-79
2023/03/30 03:23:25;;;;;;;35.50;32.63;;;13.80;99.90;;;;;;4914591;29;20458;-74
2023/03/30 03:25:52;;;;;;;36.23;33.93;;;13.70;99.90;;;;;;4914703;29;20804;-76
2023/03/30 03:28:19;;;;;;;35.87;33.33;;;13.70;99.90;;;;;;4914623;29;20450;-77
2023/03/30 03:30:45;;;;;;;37.10;33.83;;;13.70;99.90;;;;;;4914628;29;20521;-77
2023/03/30 03:33:12;;;;;;;35.23;32.70;;;13.70;99.90;;;;;;4914815;29;20457;-75
2023/03/30 03:35:44;;;;;;;39.30;36.03;;;13.70;99.90;;;;;;4914445;29;20450;-76
2023/03/30 03:38:11;;;;;;;35.50;32.63;;;13.70;99.90;;;;;;4912614;29;20482;-75
2023/03/30 03:40:38;;;;;;;34.20;31.80;;;13.60;99.90;;;;;;4914449;29;20454;-75
2023/03/30 03:43:04;;;;;;;33.93;31.63;;;13.60;99.90;;;;;;4914487;29;20509;-76
2023/03/30 03:45:31;;;;;;;34.07;31.57;;;13.60;99.90;;;;;;4914510;29;20454;-75
2023/03/30 03:47:58;;;;;;;31.17;29.17;;;13.60;99.90;;;;;;4914403;29;20442;-77
2023/03/30 03:50:25;;;;;;;29.70;27.90;;;13.60;99.90;;;;;;4914334;29;20451;-79
2023/03/30 03:52:53;;;;;;;27.33;25.67;;;13.70;99.90;;;;;;4914176;29;20814;-79
2023/03/30 03:55:19;;;;;;;27.60;25.70;;;13.70;99.90;;;;;;4914570;29;20458;-79
2023/03/30 03:57:46;;;;;;;22.97;20.97;;;13.80;99.90;;;;;;4914680;29;20489;-80
2023/03/30 04:00:16;;;;;;;19.03;17.60;;;13.90;99.90;;;;;;4914751;29;20963;-82
2023/03/30 04:02:42;;;;;;;17.43;16.00;;;13.90;99.90;;;;;;4914574;29;20494;-83
2023/03/30 04:05:10;;;;;;;19.10;17.80;;;14.00;99.90;;;;;;4914421;29;20806;-83
2023/03/30 04:07:37;;;;;;;18.80;17.17;;;14.10;99.90;;;;;;4914659;29;20596;-84
2023/03/30 04:10:07;;;;;;;22.37;18.83;;;14.20;99.90;;;;;;4914612;29;20458;-86
2023/03/30 04:12:33;;;;;;;18.63;17.60;;;14.20;99.90;;;;;;4914507;29;20462;-84
2023/03/30 04:15:00;;;;;;;17.67;16.23;;;14.00;99.90;;;;;;4915492;29;20833;-84
2023/03/30 04:17:27;;;;;;;20.40;17.30;;;14.10;99.90;;;;;;4897395;29;20491;-85
2023/03/30 04:19:55;;;;;;;16.30;15.20;;;14.20;99.90;;;;;;4898088;29;20455;-85
2023/03/30 04:22:24;;;;;;;20.93;18.73;;;14.20;99.90;;;;;;4895120;29;20471;-83
2023/03/30 04:24:51;;;;;;;18.63;16.83;;;14.20;99.90;;;;;;4894912;29;20770;-83
2023/03/30 04:27:19;;;;;;;18.33;16.53;;;14.20;99.90;;;;;;4894837;29;20478;-85
2023/03/30 04:29:46;;;;;;;17.97;16.03;;;14.20;99.90;;;;;;4894783;29;20468;-84
2023/03/30 04:32:19;;;;;;;18.57;16.23;;;14.20;99.90;;;;;;4894797;29;20482;-84
2023/03/30 04:34:46;;;;;;;17.63;16.10;;;14.20;99.90;;;;;;4894379;29;20831;-83
2023/03/30 04:37:17;;;;;;;17.17;15.70;;;14.20;99.90;;;;;;4894353;29;20465;-83
2023/03/30 04:39:43;;;;;;;18.20;16.97;;;14.10;99.90;;;;;;4894641;29;20462;-82
2023/03/30 04:42:12;;;;;;;16.80;15.40;;;14.20;99.90;;;;;;4894220;29;20467;-83
2023/03/30 04:44:40;;;;;;;16.07;14.87;;;14.20;99.90;;;;;;4894447;29;20811;-83
2023/03/30 04:47:07;;;;;;;17.30;16.03;;;14.30;99.90;;;;;;4894248;29;20570;-78
2023/03/30 04:49:34;;;;;;;20.77;17.23;;;14.30;99.90;;;;;;4894081;29;20456;-85
2023/03/30 04:52:01;;;;;;;18.60;17.00;;;14.20;99.90;;;;;;4894169;29;20467;-83
2023/03/30 04:54:27;;;;;;;19.20;17.60;;;14.10;99.90;;;;;;4894171;29;20466;-83
2023/03/30 04:56:54;;;;;;;20.40;18.47;;;14.10;99.90;;;;;;4894021;29;20971;-82
2023/03/30 04:59:21;;;;;;;20.30;18.50;;;14.00;99.90;;;;;;4893731;29;20867;-82
2023/03/30 05:01:49;;;;;;;18.80;16.80;;;13.90;99.90;;;;;;4893675;29;20455;-81
2023/03/30 05:04:15;;;;;;;18.00;16.40;;;13.90;99.90;;;;;;4894065;29;20491;-81
2023/03/30 05:06:43;;;;;;;19.00;17.40;;;13.90;99.90;;;;;;4894051;29;20466;-78
2023/03/30 05:09:09;;;;;;;19.13;17.40;;;13.80;99.90;;;;;;4893790;29;20455;-79
2023/03/30 05:11:36;;;;;;;17.53;15.80;;;13.80;99.90;;;;;;4893870;29;20463;-79
2023/03/30 05:14:02;;;;;;;18.77;17.17;;;13.80;99.90;;;;;;4893828;29;20543;-77
2023/03/30 05:16:30;;;;;;;18.93;17.17;;;13.80;99.90;;;;;;4893955;29;20486;-78
2023/03/30 05:18:58;;;;;;;18.50;16.70;;;13.80;99.90;;;;;;4894031;29;20526;-77
2023/03/30 05:21:24;;;;;;;20.27;18.43;;;13.80;99.90;;;;;;4893876;29;20817;-79
2023/03/30 05:23:51;;;;;;;21.97;17.90;;;13.80;99.90;;;;;;4893698;29;20483;-78
2023/03/30 05:26:18;;;;;;;19.50;17.87;;;13.80;99.90;;;;;;4893631;29;20788;-78
2023/03/30 05:28:46;;;;;;;20.53;19.13;;;13.80;99.90;;;;;;4893473;29;20459;-79
2023/03/30 05:31:13;;;;;;;20.17;17.90;;;13.80;99.90;;;;;;4893913;29;20502;-79
2023/03/30 05:33:39;;;;;;;19.97;17.93;;;13.90;99.90;;;;;;4893625;29;20862;-79
2023/03/30 05:36:09;;;;;;;19.87;18.23;;;13.90;99.90;;;;;;4893555;29;20455;-78
2023/03/30 05:38:36;;;;;;;22.23;20.13;;;13.90;99.90;;;;;;4893615;29;20773;-78
2023/03/30 05:41:03;;;;;;;23.47;21.17;;;14.00;99.90;;;;;;4893817;29;20463;-77
2023/03/30 05:43:30;;;;;;;20.33;18.93;;;14.00;99.90;;;;;;4894122;29;20456;-78
2023/03/30 05:45:57;;;;;;;21.07;19.20;;;14.10;99.90;;;;;;4893965;29;20950;-78
2023/03/30 05:48:24;;;;;;;23.20;20.77;;;14.10;99.90;;;;;;4893579;29;20996;-78
2023/03/30 05:50:50;;;;;;;20.73;18.83;;;14.10;99.90;;;;;;4893511;29;20871;-78
2023/03/30 05:53:18;;;;;;;21.97;20.13;;;14.00;99.90;;;;;;4893396;29;20467;-78
2023/03/30 05:55:46;;;;;;;22.40;20.50;;;14.00;99.90;;;;;;4893603;29;20461;-79
2023/03/30 05:58:13;;;;;;;21.43;19.57;;;14.00;99.90;;;;;;4893576;29;20490;-79
2023/03/30 06:00:41;;;;;;;20.73;18.17;;;14.00;99.90;;;;;;4893244;29;20458;-79
2023/03/30 06:03:08;;;;;;;23.47;21.17;;;13.90;99.90;;;;;;4893271;29;20463;-79
2023/03/30 06:05:37;;;;;;;28.47;25.70;;;13.90;99.90;;;;;;4893159;29;20490;-79
2023/03/30 06:08:04;;;;;;;28.93;21.80;;;13.90;99.90;;;;;;4893109;29;20455;-77
2023/03/30 06:10:32;;;;;;;22.07;19.83;;;13.90;99.90;;;;;;4893218;29;21077;-80
2023/03/30 06:12:59;;;;;;;21.77;19.30;;;13.90;99.90;;;;;;4893841;29;20490;-80
2023/03/30 06:15:26;;;;;;;22.43;18.70;;;13.90;99.90;;;;;;4893440;29;20857;-78
2023/03/30 06:17:53;;;;;;;25.10;23.07;;;13.80;99.90;;;;;;4893358;29;20882;-77
2023/03/30 06:20:23;;;;;;;38.47;34.93;;;13.70;99.90;;;;;;4893395;29;20721;-82
2023/03/30 06:22:50;;;;;;;42.73;39.23;;;13.70;99.90;;;;;;4893742;29;20491;-86
2023/03/30 06:25:19;;;;;;;39.13;35.70;;;13.50;99.90;;;;;;4888269;29;20510;-76
2023/03/30 06:27:47;;;;;;;40.87;37.30;;;13.50;99.90;;;;;;4890587;29;20546;-78
2023/03/30 06:30:14;;;;;;;37.03;34.37;;;13.40;99.90;;;;;;4892048;29;20462;-77
2023/03/30 06:32:41;;;;;;;35.13;32.00;;;13.30;99.90;;;;;;4892915;29;20461;-78
2023/03/30 06:35:08;;;;;;;29.40;26.80;;;13.30;99.90;;;;;;4892408;29;20813;-80
2023/03/30 06:37:35;;;;;;;30.10;27.20;;;13.40;99.90;;;;;;4892544;29;20463;-77
2023/03/30 06:40:06;;;;;;;30.83;28.13;;;13.40;99.90;;;;;;4892732;29;20483;-78
2023/03/30 06:42:33;;;;;;;29.17;27.13;;;13.50;99.90;;;;;;4895937;29;20459;-76
2023/03/30 06:45:02;;;;;;;29.67;27.27;;;13.60;99.90;;;;;;4896449;29;20774;-76
2023/03/30 06:47:29;;;;;;;30.07;27.63;;;13.70;99.90;;;;;;4896415;29;20466;-77
2023/03/30 06:49:55;;;;;;;28.80;26.13;;;13.70;99.90;;;;;;4896087;29;20455;-77
2023/03/30 06:52:22;;;;;;;30.67;27.20;;;13.80;99.90;;;;;;4895845;29;20539;-77
2023/03/30 06:54:49;;;;;;;29.20;26.90;;;13.90;99.90;;;;;;4895755;29;20459;-76
2023/03/30 06:57:15;;;;;;;29.83;27.53;;;13.90;99.90;;;;;;4896059;29;20462;-76
2023/03/30 06:59:42;;;;;;;32.43;29.60;;;14.00;99.90;;;;;;4896160;29;20483;-75
2023/03/30 07:02:14;;;;;;;29.30;26.77;;;14.00;99.90;;;;;;4895819;29;20460;-75
2023/03/30 07:04:40;;;;;;;26.53;24.23;;;14.10;99.90;;;;;;4895923;29;21001;-75
2023/03/30 07:07:07;;;;;;;23.73;21.83;;;14.20;99.90;;;;;;4895556;29;20463;-75
2023/03/30 07:09:34;;;;;;;23.43;20.80;;;14.40;99.90;;;;;;4895632;29;20463;-75
2023/03/30 07:12:01;;;;;;;19.50;18.10;;;14.50;99.90;;;;;;4895861;29;20501;-75
2023/03/30 07:14:28;;;;;;;21.50;19.40;;;14.60;99.90;;;;;;4895949;29;20451;-74
2023/03/30 07:16:55;;;;;;;17.43;16.17;;;14.70;99.90;;;;;;4895232;29;20492;-74
2023/03/30 07:19:23;;;;;;;18.60;17.20;;;14.80;99.90;;;;;;4895730;29;20530;-78
2023/03/30 07:21:50;;;;;;;18.83;17.23;;;14.90;99.90;;;;;;4895779;29;20459;-78
2023/03/30 07:24:17;;;;;;;28.80;26.83;;;14.90;99.90;;;;;;4895673;29;20459;-76
2023/03/30 07:26:43;;;;;;;34.50;31.93;;;14.90;99.90;;;;;;4899093;29;20558;-74
2023/03/30 07:29:10;;;;;;;34.70;31.70;;;14.80;99.90;;;;;;4892075;29;20510;-76
2023/03/30 07:31:37;;;;;;;36.27;32.80;;;14.70;99.90;;;;;;4895227;29;20806;-77
2023/03/30 07:34:04;;;;;;;36.30;33.20;;;14.50;99.90;;;;;;4895294;29;20803;-79
2023/03/30 07:36:32;;;;;;;34.83;31.83;;;14.30;99.90;;;;;;4895421;29;20546;-79
2023/03/30 07:38:59;;;;;;;36.87;33.87;;;14.30;99.90;;;;;;4895506;29;20498;-81
2023/03/30 07:41:25;;;;;;;36.07;33.07;;;14.10;99.90;;;;;;4895401;29;20463;-83
2023/03/30 07:43:52;;;;;;;36.80;33.90;;;14.10;99.90;;;;;;4895123;29;20459;-81
2023/03/30 07:46:19;;;;;;;37.87;34.70;;;14.00;99.90;;;;;;4895219;29;20462;-83
2023/03/30 07:48:46;;;;;;;36.30;33.60;;;13.90;99.90;;;;;;4895462;29;20467;-82
2023/03/30 07:51:13;;;;;;;39.53;36.20;;;13.90;99.90;;;;;;4895991;29;20463;-85
2023/03/30 07:53:41;;;;;;;37.80;35.20;;;14.00;99.90;;;;;;4896252;29;20463;-87
2023/03/30 07:56:09;;;;;;;36.47;33.30;;;13.90;99.90;;;;;;4896465;29;20958;-87
2023/03/30 07:58:37;;;;;;;40.90;37.63;;;13.90;99.90;;;;;;4896059;29;20838;-86
2023/03/30 08:01:04;;;;;;;38.20;35.60;;;13.80;99.90;;;;;;4898765;29;20463;-82
2023/03/30 08:03:31;;;;;;;39.20;36.30;;;13.80;99.90;;;;;;4895127;29;20534;-82
2023/03/30 08:06:02;;;;;;;40.27;37.33;;;13.80;99.90;;;;;;4898876;29;20460;-85
2023/03/30 08:08:29;;;;;;;39.07;36.20;;;13.90;99.90;;;;;;4895286;29;20466;-82
2023/03/30 08:10:57;;;;;;;38.03;35.20;;;13.90;99.90;;;;;;4895013;29;20506;-81
2023/03/30 08:13:24;;;;;;;39.97;36.90;;;13.90;99.90;;;;;;4894706;29;20459;-78
2023/03/30 08:15:53;;;;;;;38.67;35.93;;;13.90;99.90;;;;;;4894602;29;20479;-78
2023/03/30 08:18:20;;;;;;;38.83;35.93;;;13.80;99.90;;;;;;4894244;29;20483;-81
2023/03/30 08:20:51;;;;;;;38.77;36.00;;;13.80;99.90;;;;;;4894462;29;20955;-86
2023/03/30 08:23:18;;;;;;;39.27;36.30;;;13.70;99.90;;;;;;4895733;29;20557;-87
2023/03/30 08:25:46;;;;;;;39.53;36.93;;;13.80;99.90;;;;;;4895667;29;20487;-87
2023/03/30 08:28:14;;;;;;;40.30;36.80;;;13.70;99.90;;;;;;4895371;29;20482;-87
2023/03/30 08:30:41;;;;;;;40.53;37.53;;;13.70;99.90;;;;;;4895771;29;20459;-87
2023/03/30 08:33:08;;;;;;;37.90;35.50;;;13.60;99.90;;;;;;4891738;29;20542;-87
2023/03/30 08:35:35;;;;;;;38.37;35.67;;;13.60;99.90;;;;;;4895101;29;20684;-86
2023/03/30 08:38:02;;;;;;;38.60;36.20;;;13.70;99.90;;;;;;4894958;29;20462;-86
2023/03/30 08:40:28;;;;;;;38.93;36.37;;;13.60;99.90;;;;;;4895499;29;20598;-86
2023/03/30 08:43:12;;;;;;;38.80;35.97;;;13.70;99.90;;;;;;4897084;29;20824;-85
2023/03/30 08:45:42;;;;;;;40.67;37.40;;;13.90;99.90;;;;;;4898703;29;20455;-84
2023/03/30 08:48:17;;;;;;;39.07;36.07;;;13.90;99.90;;;;;;4895060;29;20483;-81
2023/03/30 08:50:50;;;;;;;39.60;36.80;;;13.80;99.90;;;;;;4893291;29;20474;-80
2023/03/30 08:53:18;;;;;;;35.93;33.63;;;13.70;99.90;;;;;;4886797;29;20463;-81
2023/03/30 08:55:49;;;;;;;35.63;33.23;;;13.60;99.90;;;;;;4892572;29;20458;-82
2023/03/30 08:58:23;;;;;;;36.43;34.03;;;13.50;99.90;;;;;;4894316;29;20806;-83
2023/03/30 09:00:56;;;;;;;36.17;33.50;;;13.40;99.90;;;;;;4893526;29;20482;-81
2023/03/30 09:03:31;;;;;;;32.20;30.10;;;13.30;99.90;;;;;;4893490;29;20463;-86
2023/03/30 09:06:04;;;;;;;34.27;31.47;;;13.20;99.90;;;;;;4895315;29;20828;-86
2023/03/30 09:08:33;;;;;;;38.13;35.23;;;13.20;99.90;;;;;;4894394;29;20813;-86
2023/03/30 09:11:02;;;;;;;35.77;33.27;;;13.10;99.90;;;;;;4895104;29;20451;-88
2023/03/30 09:13:33;;;;;;;34.37;31.70;;;13.10;99.90;;;;;;4894920;29;20876;-85
2023/03/30 09:16:13;;;;;;;34.63;31.90;;;13.10;99.90;;;;;;4894137;29;20475;-83
2023/03/30 09:18:41;;;;;;;32.70;30.30;;;13.00;99.90;;;;;;4893827;29;20483;-82
2023/03/30 09:21:11;;;;;;;33.30;31.20;;;13.00;99.90;;;;;;4893831;29;20462;-80
2023/03/30 09:23:39;;;;;;;32.50;30.20;;;13.00;99.90;;;;;;4893757;29;20459;-78
2023/03/30 09:26:15;;;;;;;32.20;30.10;;;13.00;99.90;;;;;;4893820;29;20455;-78
2023/03/30 09:28:48;;;;;;;34.60;31.43;;;13.00;99.90;;;;;;4891969;29;20520;-78
2023/03/30 09:31:23;;;;;;;33.33;31.23;;;13.00;99.90;;;;;;4892975;29;20459;-78
2023/03/30 09:33:56;;;;;;;38.53;35.70;;;13.00;99.90;;;;;;4893149;29;20462;-77
2023/03/30 09:36:27;;;;;;;33.67;31.23;;;13.10;99.90;;;;;;4893315;29;20463;-76
2023/03/30 09:38:53;;;;;;;34.60;32.50;;;13.20;99.90;;;;;;4893123;29;20490;-75
2023/03/30 09:41:39;;;;;;;37.07;34.37;;;13.30;99.90;;;;;;4891731;29;20805;-75
2023/03/30 09:44:23;;;;;;;33.10;31.07;;;13.30;99.90;;;;;;4893257;29;20451;-75
2023/03/30 09:46:53;;;;;;;32.63;30.43;;;13.30;99.90;;;;;;4892808;29;20777;-74
2023/03/30 09:49:20;;;;;;;32.27;30.37;;;13.40;99.90;;;;;;4892802;29;20451;-75
2023/03/30 09:52:00;;;;;;;30.30;28.67;;;13.40;99.90;;;;;;4892886;29;20447;-75
2023/03/30 09:54:35;;;;;;;28.07;26.67;;;13.50;99.90;;;;;;4893145;29;20459;-75
2023/03/30 09:57:01;;;;;;;28.17;26.40;;;13.60;99.90;;;;;;4892461;29;20442;-75
2023/03/30 09:59:30;;;;;;;27.80;25.93;;;13.60;99.90;;;;;;4893189;29;20506;-75
2023/03/30 10:02:18;;;;;;;24.20;22.90;;;13.70;99.90;;;;;;4893472;29;20490;-73
2023/03/30 10:05:03;;;;;;;25.37;23.87;;;13.80;99.90;;;;;;4893320;29;20926;-76
2023/03/30 10:07:36;;;;;;;23.23;22.00;;;14.00;99.90;;;;;;4893091;29;20515;-75
2023/03/30 10:10:15;;;;;;;23.00;21.73;;;14.10;99.90;;;;;;4893071;29;20463;-75
2023/03/30 10:12:42;;;;;;;22.17;20.77;;;14.40;99.90;;;;;;4893692;29;20462;-75
2023/03/30 10:15:17;;;;;;;18.87;18.07;;;14.50;99.90;;;;;;4894861;29;20514;-77
2023/03/30 10:17:47;;;;;;;17.77;16.97;;;14.60;99.90;;;;;;4897251;29;20499;-76
2023/03/30 10:20:25;;;;;;;16.03;15.13;;;14.60;99.90;;;;;;4897417;29;20838;-76
2023/03/30 10:22:55;;;;;;;16.60;15.07;;;14.70;99.90;;;;;;4897298;29;20469;-77
2023/03/30 10:25:24;;;;;;;15.87;15.13;;;14.90;99.90;;;;;;4896763;29;20455;-77
2023/03/30 10:27:52;;;;;;;15.67;14.97;;;15.20;99.90;;;;;;4896717;29;20471;-76
2023/03/30 10:30:23;;;;;;;17.33;16.33;;;15.30;99.90;;;;;;4896756;29;20538;-76
2023/03/30 10:32:52;;;;;;;14.43;13.70;;;15.30;99.90;;;;;;4896908;29;20455;-76
2023/03/30 10:35:22;;;;;;;15.00;14.30;;;15.40;99.90;;;;;;4896791;29;20462;-76
2023/03/30 10:37:51;;;;;;;16.03;15.23;;;15.30;99.90;;;;;;4895002;29;20459;-76
2023/03/30 10:40:21;;;;;;;14.80;14.10;;;15.20;99.90;;;;;;4896575;29;20902;-76
2023/03/30 10:42:51;;;;;;;14.33;13.63;;;15.00;99.90;;;;;;4896571;29;20459;-77
2023/03/30 10:45:21;;;;;;;16.17;15.37;;;15.00;99.90;;;;;;4896445;29;20467;-76
2023/03/30 10:48:00;;;;;;;18.77;17.67;;;14.90;99.90;;;;;;4896553;29;20459;-76
2023/03/30 10:50:35;;;;;;;15.97;14.87;;;14.90;99.90;;;;;;4896242;29;20455;-76
2023/03/30 10:53:19;;;;;;;15.83;15.13;;;15.00;99.90;;;;;;4896648;29;20505;-75
2023/03/30 10:55:54;;;;;;;14.10;13.50;;;15.10;99.90;;;;;;4896148;29;20545;-75
2023/03/30 10:58:33;;;;;;;13.17;12.43;;;15.10;99.90;;;;;;4896222;29;20443;-75
2023/03/30 11:01:09;;;;;;;15.73;14.77;;;15.10;99.90;;;;;;4896541;29;20881;-74
2023/03/30 11:03:39;;;;;;;16.10;15.30;;;15.10;99.90;;;;;;4896151;29;20845;-74
2023/03/30 11:06:12;;;;;;;15.93;15.13;;;15.20;99.90;;;;;;4896131;29;20463;-74
2023/03/30 11:08:42;;;;;;;18.57;17.70;;;15.10;99.90;;;;;;4893898;29;20985;-76
2023/03/30 11:11:17;;;;;;;17.30;16.30;;;15.10;99.90;;;;;;4895127;29;20466;-77
2023/03/30 11:13:49;;;;;;;16.50;15.60;;;15.10;99.90;;;;;;4894012;29;20459;-74
2023/03/30 11:16:20;;;;;;;15.10;14.40;;;15.10;99.90;;;;;;4895280;29;20478;-75
2023/03/30 11:18:55;;;;;;;15.20;14.23;;;15.20;99.90;;;;;;4895308;29;20569;-76
2023/03/30 11:21:27;;;;;;;15.77;14.57;;;16.00;99.90;;;;;;4895127;29;21080;-77
2023/03/30 11:23:55;;;;;;;15.60;14.40;;;15.70;99.90;;;;;;4895423;29;20455;-77
2023/03/30 11:26:29;;;;;;;15.10;14.20;;;15.90;99.90;;;;;;4894312;29;20896;-77
2023/03/30 11:29:03;;;;;;;14.57;13.57;;;16.20;99.90;;;;;;4895340;29;20474;-76
2023/03/30 11:31:47;;;;;;;16.07;15.27;;;16.80;99.90;;;;;;4895487;29;20455;-76
2023/03/30 11:34:26;;;;;;;14.53;13.50;;;17.00;99.90;;;;;;4895452;29;20566;-74
2023/03/30 11:37:00;;;;;;;13.90;13.00;;;17.30;99.90;;;;;;4895244;29;20477;-76
2023/03/30 11:39:32;;;;;;;13.90;13.10;;;17.30;99.90;;;;;;4895213;29;20478;-76
2023/03/30 11:42:07;;;;;;;14.27;13.30;;;17.50;99.90;;;;;;4895512;29;20794;-76
2023/03/30 11:44:33;;;;;;;14.37;13.37;;;17.70;99.90;;;;;;4894971;29;20462;-76
2023/03/30 11:47:12;;;;;;;14.47;13.57;;;18.10;99.90;;;;;;4895149;29;20458;-75
2023/03/30 11:49:54;;;;;;;14.23;13.50;;;18.10;99.90;;;;;;4894889;29;20571;-75
2023/03/30 11:52:30;;;;;;;15.67;14.60;;;18.10;99.90;;;;;;4894600;29;20463;-72
2023/03/30 11:55:23;;;;;;;14.23;13.60;;;17.80;99.90;;;;;;4895105;29;20859;-73
2023/03/30 11:57:58;;;;;;;13.17;12.37;;;17.60;99.90;;;;;;4894556;29;20479;-75
2023/03/30 12:00:43;;;;;;;13.23;12.60;;;17.90;99.90;;;;;;4894523;29;20535;-74
2023/03/30 12:03:26;;;;;;;13.47;12.73;;;17.80;99.90;;;;;;4894563;29;20740;-74
2023/03/30 12:06:05;;;;;;;14.30;13.20;;;17.60;99.90;;;;;;4894600;29;20459;-74
2023/03/30 12:08:52;;;;;;;13.57;12.70;;;17.70;99.90;;;;;;4893018;29;20474;-74
2023/03/30 12:11:27;;;;;;;13.30;12.70;;;18.00;99.90;;;;;;4878886;29;20452;-75
2023/03/30 12:13:54;;;;;;;12.40;11.80;;;18.20;99.90;;;;;;4894144;29;20467;-74
2023/03/30 12:16:28;;;;;;;13.30;12.50;;;18.10;99.90;;;;;;4894073;29;20570;-73
2023/03/30 12:19:05;;;;;;;13.67;12.87;;;18.20;99.90;;;;;;4894009;29;20451;-73
2023/03/30 12:21:39;;;;;;;13.80;13.10;;;18.30;99.90;;;;;;4893926;29;20581;-74
2023/03/30 12:24:16;;;;;;;14.07;13.37;;;18.20;99.90;;;;;;4893108;29;20455;-74
2023/03/30 12:26:43;;;;;;;15.13;14.23;;;18.20;99.90;;;;;;4893529;29;20851;-74
2023/03/30 12:29:12;;;;;;;16.60;15.60;;;17.90;99.90;;;;;;4894093;29;20563;-74
2023/03/30 12:32:02;;;;;;;14.10;13.40;;;17.60;99.90;;;;;;4893078;29;20946;-73
2023/03/30 12:34:32;;;;;;;13.93;13.03;;;17.60;99.90;;;;;;4893951;29;20463;-73
2023/03/30 12:37:08;;;;;;;13.87;12.73;;;17.80;99.90;;;;;;4894014;29;20506;-73
2023/03/30 12:39:43;;;;;;;14.27;13.47;;;17.50;99.90;;;;;;4893635;29;20459;-73
2023/03/30 12:42:34;;;;;;;13.63;12.83;;;17.60;99.90;;;;;;4893721;29;20447;-74
2023/03/30 12:45:27;;;;;;;13.10;12.30;;;18.50;99.90;;;;;;4894104;29;20486;-73
2023/03/30 12:48:06;;;;;;;13.17;12.30;;;19.40;99.90;;;;;;4891289;29;20467;-73
2023/03/30 12:50:40;;;;;;;13.43;12.37;;;19.30;99.90;;;;;;4893681;29;20455;-74
2023/03/30 12:53:28;;;;;;;13.37;12.50;;;19.70;99.90;;;;;;4893912;29;20478;-73
2023/03/30 12:56:03;;;;;;;14.73;13.67;;;20.10;99.90;;;;;;4893538;29;20455;-74
2023/03/30 12:58:57;;;;;;;13.80;13.23;;;21.00;99.90;;;;;;4893823;29;20451;-74
2023/03/30 13:01:44;;;;;;;13.37;12.57;;;21.80;99.90;;;;;;4866976;29;20503;-73
2023/03/30 13:04:15;;;;;;;13.07;12.40;;;21.20;99.30;;;;;;4891871;29;20542;-73
2023/03/30 13:06:50;;;;;;;13.60;12.90;;;20.80;99.90;;;;;;4893981;29;20466;-73
2023/03/30 13:09:53;;;;;;;12.37;11.73;;;20.30;98.90;;;;;;4893725;29;20790;-73
2023/03/30 13:12:39;;;;;;;12.60;11.80;;;20.20;99.90;;;;;;4893571;29;20459;-73
2023/03/30 13:15:32;;;;;;;13.37;12.77;;;20.00;99.50;;;;;;4893464;29;20803;-73
2023/03/30 13:18:00;;;;;;;13.90;13.10;;;19.40;99.90;;;;;;4893958;29;20491;-73
2023/03/30 13:20:33;;;;;;;12.90;12.20;;;20.40;98.70;;;;;;4893894;29;20578;-72
2023/03/30 13:23:21;;;;;;;11.60;11.20;;;19.60;98.10;;;;;;4893480;29;20460;-73
2023/03/30 13:26:03;;;;;;;13.47;12.60;;;19.90;98.20;;;;;;4892648;29;20455;-72
2023/03/30 13:28:55;;;;;;;12.73;11.77;;;19.90;98.00;;;;;;4893480;29;20467;-72
2023/03/30 13:31:39;;;;;;;12.83;12.13;;;19.70;98.80;;;;;;4893129;29;20854;-73
2023/03/30 13:34:18;;;;;;;13.50;12.80;;;19.40;97.20;;;;;;4893204;29;20784;-72
2023/03/30 13:36:54;;;;;;;13.40;12.63;;;19.20;98.00;;;;;;4893623;29;20855;-72
2023/03/30 13:39:27;;;;;;;13.17;12.57;;;19.90;96.50;;;;;;4892877;29;20470;-74
2023/03/30 13:42:05;;;;;;;13.47;12.57;;;20.00;96.50;;;;;;4893017;29;20499;-74
2023/03/30 13:44:42;;;;;;;14.57;13.57;;;19.90;95.60;;;;;;4893325;29;20455;-74
2023/03/30 13:47:26;;;;;;;14.00;12.90;;;20.70;95.50;;;;;;4893304;29;20459;-74
2023/03/30 13:49:58;;;;;;;12.93;12.00;;;20.90;95.10;;;;;;4894144;29;20558;-74
2023/03/30 13:52:30;;;;;;;13.77;12.90;;;20.90;95.30;;;;;;4897015;29;20608;-73
2023/03/30 13:54:58;;;;;;;15.10;14.10;;;20.30;95.50;;;;;;4897268;29;20455;-73
2023/03/30 13:57:32;;;;;;;12.90;11.80;;;19.60;96.90;;;;;;4897170;29;20459;-73
2023/03/30 14:00:05;;;;;;;13.77;12.57;;;19.60;96.50;;;;;;4897187;29;20458;-74
2023/03/30 14:02:32;;;;;;;13.37;12.60;;;20.00;96.60;;;;;;4897104;29;20463;-74
2023/03/30 14:05:13;;;;;;;13.97;13.17;;;20.40;96.00;;;;;;4896860;29;20953;-72
2023/03/30 14:07:46;;;;;;;13.00;12.27;;;20.60;94.60;;;;;;4896794;29;20491;-73
2023/03/30 14:10:14;;;;;;;12.40;11.57;;;19.80;95.40;;;;;;4897387;29;20487;-73
2023/03/30 14:12:44;;;;;;;11.33;10.53;;;19.90;94.90;;;;;;4896928;29;20460;-73
2023/03/30 14:15:19;;;;;;;12.63;11.67;;;20.10;99.90;;;;;;4896970;29;20451;-73
2023/03/30 14:17:49;;;;;;;13.90;12.90;;;20.10;94.90;;;;;;4896908;29;20490;-73
2023/03/30 14:20:30;;;;;;;12.60;11.70;;;19.70;95.70;;;;;;4896821;29;20459;-73
2023/03/30 14:22:59;;;;;;;12.50;11.80;;;19.40;94.90;;;;;;4896320;29;20505;-74
2023/03/30 14:25:28;;;;;;;13.67;12.90;;;19.40;95.70;;;;;;4897118;29;20865;-73
2023/03/30 14:28:02;;;;;;;12.93;12.27;;;19.20;94.30;;;;;;4896841;29;20880;-74
2023/03/30 14:30:29;;;;;;;13.23;12.57;;;19.00;94.10;;;;;;4896378;29;20455;-74
2023/03/30 14:33:06;;;;;;;11.57;11.03;;;18.90;94.60;;;;;;4896217;29;20483;-73
2023/03/30 14:35:34;;;;;;;12.47;11.50;;;18.90;94.60;;;;;;4896238;29;20470;-73
2023/03/30 14:38:01;;;;;;;13.10;12.03;;;18.90;94.40;;;;;;4894551;29;20820;-73
2023/03/30 14:40:28;;;;;;;13.40;12.80;;;18.80;93.90;;;;;;4896274;29;20522;-72
2023/03/30 14:42:58;;;;;;;12.40;11.60;;;18.80;94.10;;;;;;4896558;29;20458;-73
2023/03/30 14:45:25;;;;;;;12.60;11.80;;;18.80;93.40;;;;;;4896398;29;20459;-73
2023/03/30 14:47:55;;;;;;;12.30;11.60;;;18.70;93.20;;;;;;4896351;29;20455;-73
2023/03/30 14:50:22;;;;;;;13.93;12.77;;;18.60;93.60;;;;;;4896572;29;20463;-73
2023/03/30 14:52:51;;;;;;;12.33;11.50;;;18.80;93.90;;;;;;4896131;29;20957;-73
2023/03/30 14:55:22;;;;;;;12.00;11.30;;;18.80;93.60;;;;;;4896191;29;21009;-73
2023/03/30 14:57:50;;;;;;;11.60;10.90;;;18.70;93.70;;;;;;4896324;29;20466;-73
2023/03/30 15:00:21;;;;;;;12.03;11.47;;;18.70;94.50;;;;;;4896282;29;20459;-75
2023/03/30 15:02:50;;;;;;;10.90;10.30;;;18.50;97.90;;;;;;4894919;29;20462;-74
2023/03/30 15:05:17;;;;;;;11.50;10.90;;;18.10;98.50;;;;;;4895931;29;20946;-74
2023/03/30 15:07:47;;;;;;;11.47;10.97;;;17.90;98.00;;;;;;4896059;29;20468;-74
2023/03/30 15:10:31;;;;;;;11.90;11.10;;;17.90;97.90;;;;;;4895621;29;20475;-75
2023/03/30 15:12:59;;;;;;;12.63;11.90;;;18.00;97.50;;;;;;4895930;29;20481;-73
2023/03/30 15:15:31;;;;;;;13.73;12.93;;;18.10;96.90;;;;;;4895453;29;20491;-72
2023/03/30 15:17:59;;;;;;;12.77;11.90;;;18.10;97.10;;;;;;4895641;29;20546;-73
2023/03/30 15:20:28;;;;;;;12.50;11.73;;;18.00;97.70;;;;;;4895521;29;20455;-75
2023/03/30 15:22:55;;;;;;;12.60;11.67;;;18.10;97.80;;;;;;4895189;29;20456;-73
2023/03/30 15:25:28;;;;;;;11.50;11.00;;;17.90;97.50;;;;;;4893564;29;20447;-73
2023/03/30 15:27:58;;;;;;;10.83;10.33;;;17.90;98.20;;;;;;4895701;29;20466;-73
2023/03/30 15:30:30;;;;;;;12.07;11.27;;;17.90;98.60;;;;;;4895471;29;20466;-74
2023/03/30 15:32:57;;;;;;;11.23;10.60;;;17.70;99.90;;;;;;4895733;29;20470;-73
2023/03/30 15:35:27;;;;;;;12.40;11.23;;;17.50;99.90;;;;;;4895259;29;20455;-73
2023/03/30 15:37:56;;;;;;;12.00;11.10;;;17.50;99.90;;;;;;4895252;29;20467;-74
2023/03/30 15:40:34;;;;;;;11.73;11.23;;;17.60;98.20;;;;;;4895133;29;20466;-73
2023/03/30 15:43:15;;;;;;;12.47;11.87;;;17.50;97.90;;;;;;4895124;29;20444;-73
2023/03/30 15:45:48;;;;;;;12.37;11.80;;;17.30;99.90;;;;;;4895481;29;20451;-72
2023/03/30 15:48:17;;;;;;;11.60;11.00;;;17.10;99.90;;;;;;4895399;29;20459;-75
2023/03/30 15:50:48;;;;;;;11.27;10.77;;;17.10;99.90;;;;;;4895463;29;20471;-74
2023/03/30 15:53:20;;;;;;;13.10;12.50;;;17.40;99.90;;;;;;4894018;29;20439;-77
2023/03/30 15:55:51;;;;;;;12.30;11.70;;;17.00;99.90;;;;;;4895088;29;20554;-76
2023/03/30 15:58:23;;;;;;;10.20;9.60;;;16.70;99.90;;;;;;4895007;29;20545;-75
2023/03/30 16:00:52;;;;;;;11.80;11.10;;;16.70;99.90;;;;;;4894842;29;20463;-77
2023/03/30 16:03:31;;;;;;;11.73;11.17;;;16.90;99.90;;;;;;4895050;29;20459;-78
2023/03/30 16:05:58;;;;;;;10.80;10.00;;;17.00;99.90;;;;;;4895136;29;20462;-76